Time;durP1;ratioP1;P1;durP2;ratioP2;P2;SDS_P1;SDS_P2;PMS_P1;PMS_P2;Temp;Humidity;BMP_temperature;BMP_pressure;BME280_temperature;BME280_humidity;BME280_pressure;Samples;Min_cycle;Max_cycle;Signal;HPM_P1;HPM_P2
2022/12/02 00:00:00;;;;;;;18.47;13.27;;;8.40;99.90;;;;;;5095362;28;20262;-60
2022/12/02 00:02:29;;;;;;;19.97;13.57;;;8.30;99.90;;;;;;5094742;28;20295;-58
2022/12/02 00:05:01;;;;;;;17.37;13.13;;;8.30;99.90;;;;;;5094462;28;20232;-60
2022/12/02 00:07:31;;;;;;;18.73;13.00;;;8.40;99.90;;;;;;5094750;28;20292;-59
2022/12/02 00:09:58;;;;;;;19.03;13.30;;;8.40;99.90;;;;;;5094837;28;20214;-59
2022/12/02 00:12:27;;;;;;;19.73;13.30;;;8.40;99.90;;;;;;5094828;28;20208;-59
2022/12/02 00:14:57;;;;;;;18.80;13.30;;;8.40;99.90;;;;;;5094765;28;20231;-59
2022/12/02 00:17:24;;;;;;;21.03;13.97;;;8.20;99.90;;;;;;5093974;28;20211;-59
2022/12/02 00:19:51;;;;;;;18.70;13.57;;;8.10;99.90;;;;;;5094842;28;20232;-58
2022/12/02 00:22:18;;;;;;;20.60;13.43;;;8.00;99.90;;;;;;5094925;28;20208;-59
2022/12/02 00:24:46;;;;;;;20.23;14.13;;;7.90;99.90;;;;;;5094340;28;20351;-59
2022/12/02 00:27:13;;;;;;;16.83;12.87;;;7.90;99.90;;;;;;5097790;28;20208;-59
2022/12/02 00:29:40;;;;;;;20.77;14.27;;;7.90;99.90;;;;;;5097791;28;20586;-58
2022/12/02 00:32:07;;;;;;;20.67;13.23;;;7.90;99.90;;;;;;5097346;28;20215;-59
2022/12/02 00:34:33;;;;;;;17.73;12.73;;;7.80;99.90;;;;;;5097630;28;20668;-59
2022/12/02 00:37:00;;;;;;;18.63;12.83;;;7.70;99.90;;;;;;5096888;28;20231;-59
2022/12/02 00:39:27;;;;;;;20.40;13.33;;;7.80;99.90;;;;;;5097943;28;20635;-58
2022/12/02 00:41:55;;;;;;;21.37;12.83;;;7.70;99.90;;;;;;5098103;28;20303;-58
2022/12/02 00:47:06;;;;;;;19.93;13.57;;;7.70;99.90;;;;;;5097218;28;20281;-58
2022/12/02 00:49:33;;;;;;;21.03;14.10;;;7.70;99.90;;;;;;5097021;28;20200;-59
2022/12/02 00:52:00;;;;;;;19.33;13.13;;;7.60;99.90;;;;;;5097516;28;20207;-59
2022/12/02 00:54:26;;;;;;;18.50;13.20;;;7.60;99.90;;;;;;5097198;28;20458;-59
2022/12/02 00:56:55;;;;;;;20.53;13.67;;;7.50;99.90;;;;;;5097023;28;20208;-59
2022/12/02 00:59:21;;;;;;;21.20;13.90;;;7.40;99.90;;;;;;5097128;28;20224;-59
2022/12/02 01:01:48;;;;;;;21.03;13.93;;;7.30;99.90;;;;;;5097711;28;20222;-58
2022/12/02 01:04:15;;;;;;;18.30;13.00;;;7.40;99.90;;;;;;5097328;28;20295;-60
2022/12/02 01:06:42;;;;;;;18.93;12.90;;;7.60;99.90;;;;;;5097368;28;20224;-59
2022/12/02 01:09:09;;;;;;;17.53;13.00;;;7.70;99.90;;;;;;5096171;28;20367;-59
2022/12/02 01:11:36;;;;;;;17.27;12.83;;;7.80;99.90;;;;;;5097248;28;20682;-59
2022/12/02 01:14:04;;;;;;;19.93;13.77;;;7.90;99.90;;;;;;5096847;28;20659;-59
2022/12/02 01:16:31;;;;;;;19.20;12.97;;;7.90;99.90;;;;;;5097668;28;20228;-59
2022/12/02 01:18:57;;;;;;;21.63;13.30;;;7.90;99.90;;;;;;5096014;28;20224;-59
2022/12/02 01:21:24;;;;;;;20.43;13.30;;;8.00;99.90;;;;;;5097038;28;20212;-58
2022/12/02 01:23:51;;;;;;;19.00;13.50;;;8.00;99.90;;;;;;5097087;28;20287;-59
2022/12/02 01:26:18;;;;;;;21.60;13.47;;;8.10;99.90;;;;;;5097718;28;20236;-61
2022/12/02 01:28:45;;;;;;;17.63;13.03;;;8.10;99.90;;;;;;5097032;28;20727;-61
2022/12/02 01:31:14;;;;;;;17.47;12.87;;;8.20;99.90;;;;;;5098181;28;20217;-60
2022/12/02 01:33:41;;;;;;;18.17;12.33;;;8.30;99.90;;;;;;5097664;28;20219;-61
2022/12/02 01:36:08;;;;;;;20.27;12.60;;;8.10;99.90;;;;;;5096729;28;20607;-60
2022/12/02 01:38:35;;;;;;;20.07;13.37;;;8.10;99.90;;;;;;5096450;28;20224;-61
2022/12/02 01:41:02;;;;;;;19.83;14.27;;;8.10;99.90;;;;;;5098098;28;20206;-60
2022/12/02 01:43:29;;;;;;;19.80;13.10;;;8.10;99.90;;;;;;5098029;28;20228;-61
2022/12/02 01:45:56;;;;;;;19.27;13.73;;;8.10;99.90;;;;;;5097433;28;20603;-61
2022/12/02 01:48:25;;;;;;;19.13;13.87;;;8.10;99.90;;;;;;5096121;28;20204;-61
2022/12/02 01:50:51;;;;;;;21.63;13.67;;;8.10;99.90;;;;;;5097372;28;20295;-61
2022/12/02 01:53:19;;;;;;;20.67;14.00;;;8.10;99.90;;;;;;5097133;28;20204;-60
2022/12/02 01:55:45;;;;;;;19.53;13.63;;;8.20;99.90;;;;;;5096241;28;20230;-61
2022/12/02 01:58:13;;;;;;;18.33;13.57;;;8.20;99.90;;;;;;5096121;28;20271;-59
2022/12/02 02:00:40;;;;;;;19.33;13.27;;;8.20;99.90;;;;;;5097024;28;20596;-61
2022/12/02 02:03:07;;;;;;;18.93;13.07;;;8.20;99.90;;;;;;5096937;28;20660;-60
2022/12/02 02:05:35;;;;;;;20.33;13.40;;;8.20;99.90;;;;;;5096201;28;20230;-61
2022/12/02 02:08:04;;;;;;;21.17;14.07;;;8.20;99.90;;;;;;5096494;28;20204;-61
2022/12/02 02:10:32;;;;;;;21.93;13.13;;;8.20;99.90;;;;;;5097341;28;20234;-61
2022/12/02 02:12:59;;;;;;;18.17;13.23;;;8.20;99.90;;;;;;5096815;28;20246;-60
2022/12/02 02:15:27;;;;;;;19.30;13.90;;;8.20;99.90;;;;;;5096112;28;20594;-61
2022/12/02 02:17:55;;;;;;;19.13;13.80;;;8.20;99.90;;;;;;5096676;28;20211;-60
2022/12/02 02:20:24;;;;;;;21.30;13.60;;;8.20;99.90;;;;;;5096331;28;20224;-60
2022/12/02 02:22:57;;;;;;;17.80;12.93;;;8.20;99.90;;;;;;5096648;28;20210;-60
2022/12/02 02:25:25;;;;;;;18.80;13.90;;;8.10;99.90;;;;;;5096808;28;20240;-60
2022/12/02 02:27:54;;;;;;;19.67;12.90;;;8.00;99.90;;;;;;5096716;28;20218;-60
2022/12/02 02:30:22;;;;;;;19.70;13.27;;;7.90;99.90;;;;;;5097143;28;20200;-60
2022/12/02 02:32:49;;;;;;;20.83;13.53;;;7.90;99.90;;;;;;5098301;28;20738;-60
2022/12/02 02:35:18;;;;;;;21.37;13.97;;;8.00;99.90;;;;;;5097324;28;20230;-60
2022/12/02 02:37:45;;;;;;;18.63;12.40;;;8.00;99.90;;;;;;5098029;28;20204;-61
2022/12/02 02:40:15;;;;;;;18.60;13.70;;;8.00;99.90;;;;;;5096421;28;20230;-61
2022/12/02 02:42:43;;;;;;;22.90;14.57;;;8.00;99.90;;;;;;5097870;28;20251;-60
2022/12/02 02:45:11;;;;;;;19.43;12.97;;;8.10;99.90;;;;;;5096500;28;20223;-65
2022/12/02 02:47:38;;;;;;;18.40;13.07;;;8.10;99.90;;;;;;5096273;28;20207;-60
2022/12/02 02:50:06;;;;;;;18.37;13.50;;;8.10;99.90;;;;;;5096135;28;20200;-61
2022/12/02 02:52:33;;;;;;;18.57;13.63;;;8.10;99.90;;;;;;5098193;28;20283;-61
2022/12/02 02:55:00;;;;;;;18.77;13.57;;;7.90;99.90;;;;;;5097056;28;20234;-60
2022/12/02 02:57:27;;;;;;;17.77;12.20;;;7.90;99.90;;;;;;5096861;28;20203;-61
2022/12/02 02:59:57;;;;;;;19.47;13.00;;;7.90;99.90;;;;;;5097161;28;20311;-60
2022/12/02 03:02:25;;;;;;;19.27;13.23;;;8.00;99.90;;;;;;5097701;28;20204;-61
2022/12/02 03:04:52;;;;;;;19.87;13.97;;;7.90;99.90;;;;;;5097781;28;20598;-61
2022/12/02 03:07:19;;;;;;;21.80;13.80;;;7.90;99.90;;;;;;5095057;28;20543;-61
2022/12/02 03:09:47;;;;;;;19.90;13.17;;;7.90;99.90;;;;;;5094966;28;20208;-60
2022/12/02 03:12:15;;;;;;;17.90;13.23;;;7.80;99.90;;;;;;5095526;28;20272;-61
2022/12/02 03:14:42;;;;;;;19.03;13.87;;;7.60;99.90;;;;;;5095364;28;20299;-61
2022/12/02 03:17:10;;;;;;;18.77;13.67;;;7.50;99.90;;;;;;5094819;28;20294;-60
2022/12/02 03:19:38;;;;;;;17.73;13.10;;;7.60;99.90;;;;;;5095410;28;20625;-61
2022/12/02 03:22:06;;;;;;;17.97;12.97;;;7.60;99.90;;;;;;5094740;28;20299;-61
2022/12/02 03:24:34;;;;;;;18.23;12.43;;;7.80;99.90;;;;;;5096177;28;20231;-61
2022/12/02 03:27:01;;;;;;;19.47;13.07;;;7.80;99.90;;;;;;5096117;28;20269;-61
2022/12/02 03:29:29;;;;;;;17.30;12.43;;;7.90;99.90;;;;;;5096366;28;20239;-61
2022/12/02 03:31:57;;;;;;;18.97;13.27;;;8.00;99.90;;;;;;5096766;28;20204;-60
2022/12/02 03:34:25;;;;;;;18.83;13.00;;;8.10;99.90;;;;;;5095631;28;20204;-60
2022/12/02 03:36:52;;;;;;;17.80;12.70;;;8.10;99.90;;;;;;5095476;28;20203;-61
2022/12/02 03:39:20;;;;;;;18.27;13.10;;;8.10;99.90;;;;;;5095088;28;20224;-60
2022/12/02 03:41:47;;;;;;;20.13;13.23;;;8.10;99.90;;;;;;5095097;28;20203;-61
2022/12/02 03:44:15;;;;;;;18.23;12.93;;;8.20;99.90;;;;;;5095427;28;20268;-60
2022/12/02 03:46:42;;;;;;;18.63;12.87;;;8.20;99.90;;;;;;5095468;28;20228;-61
2022/12/02 03:49:09;;;;;;;17.47;13.03;;;8.20;99.90;;;;;;5094265;28;20200;-61
2022/12/02 03:51:38;;;;;;;19.23;12.93;;;8.20;99.90;;;;;;5095193;28;20647;-61
2022/12/02 03:54:05;;;;;;;21.07;13.37;;;8.20;99.90;;;;;;5095277;28;21001;-61
2022/12/02 03:56:37;;;;;;;16.40;12.03;;;8.10;99.90;;;;;;5095352;28;20315;-61
2022/12/02 03:59:04;;;;;;;20.33;13.23;;;8.10;99.90;;;;;;5094350;28;20220;-60
2022/12/02 04:01:31;;;;;;;20.07;12.97;;;8.10;99.90;;;;;;5099138;28;20295;-61
2022/12/02 04:03:58;;;;;;;19.63;12.47;;;8.10;99.90;;;;;;5098869;28;20568;-61
2022/12/02 04:06:25;;;;;;;19.33;13.20;;;8.00;99.90;;;;;;5099200;28;20224;-61
2022/12/02 04:08:53;;;;;;;18.63;13.30;;;8.10;99.90;;;;;;5099026;28;20299;-59
2022/12/02 04:11:20;;;;;;;21.50;13.87;;;8.10;99.90;;;;;;5099337;28;20254;-60
2022/12/02 04:13:47;;;;;;;29.17;20.73;;;8.10;99.90;;;;;;5099770;28;20247;-61
2022/12/02 04:16:13;;;;;;;19.10;13.30;;;8.10;99.90;;;;;;5099089;28;20266;-61
2022/12/02 04:18:40;;;;;;;19.47;12.70;;;8.00;99.90;;;;;;5099323;28;20267;-60
2022/12/02 04:21:07;;;;;;;18.50;13.00;;;8.10;99.90;;;;;;5098379;28;20714;-61
2022/12/02 04:23:34;;;;;;;17.70;12.43;;;8.10;99.90;;;;;;5098663;28;20214;-61
2022/12/02 04:26:02;;;;;;;20.17;13.50;;;8.00;99.90;;;;;;5098475;28;20282;-60
2022/12/02 04:28:29;;;;;;;18.63;12.40;;;8.00;99.90;;;;;;5097441;28;20214;-61
2022/12/02 04:30:56;;;;;;;21.50;13.53;;;7.90;99.90;;;;;;5098293;28;20211;-60
2022/12/02 04:33:23;;;;;;;19.33;12.30;;;7.80;99.90;;;;;;5098488;28;20589;-61
2022/12/02 04:35:50;;;;;;;18.87;13.03;;;7.50;99.90;;;;;;5098388;28;20680;-59
2022/12/02 04:38:17;;;;;;;19.77;13.10;;;7.30;99.90;;;;;;5097759;28;20211;-61
2022/12/02 04:40:44;;;;;;;21.63;13.53;;;7.40;99.90;;;;;;5097834;28;20228;-60
2022/12/02 04:43:12;;;;;;;19.63;12.77;;;7.50;99.90;;;;;;5097898;28;20208;-60
2022/12/02 04:45:39;;;;;;;18.00;12.67;;;7.60;99.90;;;;;;5098046;28;20224;-60
2022/12/02 04:48:06;;;;;;;21.37;13.33;;;7.70;99.90;;;;;;5097752;28;20208;-61
2022/12/02 04:50:33;;;;;;;18.77;12.77;;;7.80;99.90;;;;;;5098895;28;20211;-60
2022/12/02 04:53:00;;;;;;;18.47;12.77;;;7.80;99.90;;;;;;5098134;28;20219;-62
2022/12/02 04:55:26;;;;;;;18.43;12.63;;;7.90;99.90;;;;;;5097983;28;20731;-60
2022/12/02 04:57:53;;;;;;;18.80;13.07;;;8.00;99.90;;;;;;5097573;28;20287;-61
2022/12/02 05:00:22;;;;;;;19.60;12.87;;;8.00;99.90;;;;;;5097374;28;20235;-61
2022/12/02 05:02:48;;;;;;;19.77;13.23;;;8.10;99.90;;;;;;5098396;28;20204;-61
2022/12/02 05:05:15;;;;;;;17.47;13.00;;;8.10;99.90;;;;;;5098299;28;20242;-60
2022/12/02 05:07:42;;;;;;;18.07;12.93;;;8.10;99.90;;;;;;5097232;28;20297;-61
2022/12/02 05:10:10;;;;;;;18.53;12.80;;;8.00;99.90;;;;;;5098503;28;20204;-60
2022/12/02 05:12:37;;;;;;;20.07;12.63;;;8.20;99.90;;;;;;5097132;28;20210;-60
2022/12/02 05:15:04;;;;;;;17.37;12.70;;;7.80;99.90;;;;;;5098882;28;20224;-61
2022/12/02 05:17:32;;;;;;;20.67;14.17;;;7.70;99.90;;;;;;5098904;28;20242;-61
2022/12/02 05:19:59;;;;;;;18.87;12.53;;;7.60;99.90;;;;;;5098215;28;20224;-61
2022/12/02 05:22:26;;;;;;;18.43;12.97;;;7.70;99.90;;;;;;5099253;28;20211;-61
2022/12/02 05:24:52;;;;;;;17.83;12.80;;;7.70;99.90;;;;;;5099786;28;20677;-60
2022/12/02 05:27:19;;;;;;;20.07;13.47;;;7.60;99.90;;;;;;5098720;28;20192;-61
2022/12/02 05:29:46;;;;;;;19.03;13.03;;;7.70;99.90;;;;;;5099195;28;20196;-60
2022/12/02 05:32:13;;;;;;;18.53;12.33;;;7.70;99.90;;;;;;5100239;28;20208;-60
2022/12/02 05:34:41;;;;;;;19.03;13.20;;;7.70;99.90;;;;;;5100223;28;20243;-60
2022/12/02 05:37:08;;;;;;;17.53;12.37;;;7.80;99.90;;;;;;5098797;28;20230;-60
2022/12/02 05:39:35;;;;;;;17.73;12.20;;;7.90;99.90;;;;;;5097858;28;20227;-60
2022/12/02 05:42:07;;;;;;;19.80;13.63;;;7.90;99.90;;;;;;5098878;28;20208;-61
2022/12/02 05:44:35;;;;;;;19.60;13.30;;;7.90;99.90;;;;;;5098148;28;20239;-60
2022/12/02 05:47:06;;;;;;;26.53;17.90;;;7.90;99.90;;;;;;5099104;28;20215;-61
2022/12/02 05:49:33;;;;;;;21.27;14.50;;;8.00;99.90;;;;;;5098563;28;20236;-60
2022/12/02 05:52:07;;;;;;;20.43;14.00;;;7.90;99.90;;;;;;5098640;28;20210;-60
2022/12/02 05:54:33;;;;;;;18.83;12.67;;;8.00;99.90;;;;;;5098018;28;20257;-61
2022/12/02 05:57:02;;;;;;;20.90;13.50;;;7.90;99.90;;;;;;5097985;28;20642;-60
2022/12/02 05:59:30;;;;;;;19.73;12.87;;;7.80;99.90;;;;;;5097572;28;20586;-60
2022/12/02 06:01:58;;;;;;;17.20;12.43;;;7.90;99.90;;;;;;5097780;28;20299;-60
2022/12/02 06:04:26;;;;;;;18.47;13.10;;;7.90;99.90;;;;;;5097546;28;20692;-60
2022/12/02 06:06:55;;;;;;;18.73;13.23;;;7.90;99.90;;;;;;5098635;28;20234;-61
2022/12/02 06:09:28;;;;;;;17.47;12.93;;;8.00;99.90;;;;;;5097522;28;20575;-61
2022/12/02 06:11:55;;;;;;;20.13;13.53;;;8.10;99.90;;;;;;5097699;28;20212;-60
2022/12/02 06:14:24;;;;;;;17.20;12.67;;;8.10;99.90;;;;;;5098029;28;20208;-60
2022/12/02 06:16:54;;;;;;;18.70;13.63;;;8.10;99.90;;;;;;5097855;28;20668;-60
2022/12/02 06:19:28;;;;;;;24.10;16.00;;;8.10;99.90;;;;;;5098452;28;20207;-61
2022/12/02 06:21:58;;;;;;;20.53;14.27;;;8.10;99.90;;;;;;5098153;28;20416;-61
2022/12/02 06:24:30;;;;;;;21.07;13.00;;;8.10;99.90;;;;;;5097084;28;20231;-60
2022/12/02 06:26:58;;;;;;;22.30;14.87;;;8.00;99.90;;;;;;5096864;28;20205;-59
2022/12/02 06:29:27;;;;;;;21.40;14.63;;;8.00;99.90;;;;;;5096881;28;20291;-59
2022/12/02 06:31:55;;;;;;;22.70;14.53;;;8.00;99.90;;;;;;5097390;28;20295;-60
2022/12/02 06:34:34;;;;;;;21.17;14.33;;;8.10;99.90;;;;;;5097329;28;20200;-60
2022/12/02 06:37:09;;;;;;;22.17;14.40;;;8.10;99.90;;;;;;5097151;28;20287;-60
2022/12/02 06:39:39;;;;;;;22.37;14.73;;;8.20;99.90;;;;;;5097561;28;20204;-59
2022/12/02 06:42:18;;;;;;;24.30;13.90;;;8.20;99.90;;;;;;5097585;28;20204;-60
2022/12/02 06:47:50;;;;;;;28.30;17.83;;;8.30;99.90;;;;;;5097437;28;20199;-57
2022/12/02 06:50:26;;;;;;;21.43;14.57;;;8.30;99.90;;;;;;5097269;28;20203;-60
2022/12/02 06:52:56;;;;;;;27.63;16.60;;;8.30;99.90;;;;;;5096176;28;20208;-60
2022/12/02 06:55:32;;;;;;;21.97;14.87;;;8.30;99.90;;;;;;5097349;28;20232;-60
2022/12/02 06:58:05;;;;;;;23.97;15.13;;;8.30;99.90;;;;;;5095899;28;20203;-60
2022/12/02 07:00:32;;;;;;;24.93;16.77;;;8.40;99.90;;;;;;5098660;28;20315;-59
2022/12/02 07:02:59;;;;;;;21.10;14.33;;;8.30;99.90;;;;;;5096980;28;20258;-60
2022/12/02 07:05:26;;;;;;;22.07;14.63;;;8.30;99.90;;;;;;5097461;28;20220;-59
2022/12/02 07:07:53;;;;;;;25.47;15.37;;;8.30;99.90;;;;;;5097772;28;20215;-60
2022/12/02 07:10:21;;;;;;;22.57;14.67;;;8.30;99.90;;;;;;5097021;28;20755;-60
2022/12/02 07:12:50;;;;;;;47.03;28.47;;;8.30;99.90;;;;;;5097536;28;20239;-59
2022/12/02 07:15:26;;;;;;;25.20;15.50;;;8.30;99.90;;;;;;5097574;28;20227;-59
2022/12/02 07:17:56;;;;;;;35.47;24.50;;;8.30;99.90;;;;;;5097476;28;20215;-60
2022/12/02 07:20:31;;;;;;;24.97;15.67;;;8.30;99.90;;;;;;5096847;28;20753;-59
2022/12/02 07:23:00;;;;;;;22.07;14.43;;;8.30;99.90;;;;;;5096782;28;20204;-60
2022/12/02 07:25:35;;;;;;;22.93;14.83;;;8.30;99.90;;;;;;5124626;22;20681;-64
2022/12/02 07:28:15;;;;;;;23.70;14.70;;;8.30;99.90;;;;;;5100237;28;20558;-63
2022/12/02 07:30:42;;;;;;;24.13;14.90;;;8.30;99.90;;;;;;5092938;28;20577;-64
2022/12/02 07:33:08;;;;;;;22.83;14.40;;;8.30;99.90;;;;;;5092495;28;20208;-64
2022/12/02 07:35:35;;;;;;;21.93;14.80;;;8.20;99.90;;;;;;5091623;28;20231;-63
2022/12/02 07:38:02;;;;;;;21.27;14.77;;;8.10;99.90;;;;;;5091565;28;20212;-63
2022/12/02 07:40:29;;;;;;;25.57;15.53;;;8.20;99.90;;;;;;5092071;28;20224;-66
2022/12/02 07:42:55;;;;;;;21.53;14.67;;;8.10;99.90;;;;;;5092351;28;20684;-63
2022/12/02 07:45:23;;;;;;;23.40;15.00;;;8.10;99.90;;;;;;5093097;28;20621;-63
2022/12/02 07:47:50;;;;;;;22.80;14.27;;;8.10;99.90;;;;;;5093381;28;20207;-64
2022/12/02 07:50:18;;;;;;;23.40;14.37;;;8.10;99.90;;;;;;5093814;28;20582;-64
2022/12/02 07:52:44;;;;;;;22.00;14.00;;;8.20;99.90;;;;;;5094666;28;20211;-64
2022/12/02 07:55:11;;;;;;;21.57;14.10;;;8.20;99.90;;;;;;5094206;28;20228;-64
2022/12/02 07:57:39;;;;;;;23.53;14.17;;;8.20;99.90;;;;;;5092628;28;20210;-63
2022/12/02 08:00:07;;;;;;;21.20;14.10;;;8.00;99.90;;;;;;5092771;28;20204;-63
2022/12/02 08:02:35;;;;;;;19.17;12.63;;;7.90;99.90;;;;;;5093362;28;20212;-64
2022/12/02 08:05:02;;;;;;;20.83;14.83;;;7.90;99.90;;;;;;5092468;28;20290;-64
2022/12/02 08:07:29;;;;;;;21.13;13.70;;;7.90;99.90;;;;;;5092564;28;20200;-63
2022/12/02 08:09:55;;;;;;;19.27;13.43;;;7.90;99.90;;;;;;5092202;28;20211;-64
2022/12/02 08:12:22;;;;;;;21.53;13.20;;;8.00;99.90;;;;;;5093019;28;20211;-63
2022/12/02 08:14:49;;;;;;;21.37;14.47;;;8.10;99.90;;;;;;5092728;28;20275;-63
2022/12/02 08:17:16;;;;;;;20.07;13.20;;;7.90;99.90;;;;;;5092779;28;20223;-63
2022/12/02 08:19:44;;;;;;;22.93;13.93;;;7.90;99.90;;;;;;5093049;28;20686;-63
2022/12/02 08:22:10;;;;;;;19.00;13.93;;;7.70;99.90;;;;;;5092536;28;20228;-64
2022/12/02 08:24:37;;;;;;;18.63;12.57;;;7.60;99.90;;;;;;5092352;28;20207;-64
2022/12/02 08:27:04;;;;;;;19.10;13.20;;;7.40;99.90;;;;;;5092315;28;20625;-65
2022/12/02 08:29:31;;;;;;;20.33;13.70;;;7.30;99.90;;;;;;5092796;28;20204;-63
2022/12/02 08:31:58;;;;;;;18.87;12.87;;;7.10;99.90;;;;;;5093229;28;20196;-63
2022/12/02 08:34:24;;;;;;;21.60;12.63;;;7.00;99.90;;;;;;5093074;28;20205;-64
2022/12/02 08:36:53;;;;;;;24.73;16.33;;;7.20;99.90;;;;;;5091846;28;20254;-63
2022/12/02 08:39:19;;;;;;;22.60;13.43;;;7.30;99.90;;;;;;5091901;28;20212;-63
2022/12/02 08:41:46;;;;;;;18.57;13.03;;;7.50;99.90;;;;;;5092683;28;20228;-64
2022/12/02 08:44:13;;;;;;;16.90;12.17;;;7.50;99.90;;;;;;5092068;28;20211;-65
2022/12/02 08:46:40;;;;;;;17.50;12.20;;;7.60;99.90;;;;;;5092581;28;20228;-62
2022/12/02 08:49:07;;;;;;;21.77;12.87;;;7.70;99.90;;;;;;5095733;28;20204;-64
2022/12/02 08:51:34;;;;;;;13.33;9.93;;;7.90;99.90;;;;;;5095961;28;20207;-63
2022/12/02 08:54:02;;;;;;;13.27;9.50;;;8.00;99.90;;;;;;5096359;28;20383;-65
2022/12/02 08:56:29;;;;;;;15.13;9.37;;;8.00;99.90;;;;;;5093577;28;20204;-61
2022/12/02 08:58:56;;;;;;;10.83;7.77;;;7.90;99.90;;;;;;5093813;28;20807;-66
2022/12/02 09:01:23;;;;;;;10.90;7.70;;;7.90;99.90;;;;;;5095431;28;20223;-66
2022/12/02 09:03:50;;;;;;;11.30;7.30;;;7.70;99.90;;;;;;5094873;28;20209;-66
2022/12/02 09:06:16;;;;;;;10.73;7.73;;;7.60;99.90;;;;;;5096958;28;20235;-67
2022/12/02 09:08:43;;;;;;;11.70;7.30;;;7.50;99.90;;;;;;5094202;28;20204;-66
2022/12/02 09:11:11;;;;;;;10.83;7.00;;;7.60;99.90;;;;;;5094758;28;20602;-66
2022/12/02 09:13:38;;;;;;;8.77;6.93;;;7.60;99.90;;;;;;5094969;28;20208;-67
2022/12/02 09:16:05;;;;;;;9.33;7.07;;;7.60;99.90;;;;;;5094572;28;20232;-67
2022/12/02 09:18:32;;;;;;;10.63;7.20;;;7.60;99.90;;;;;;5094575;28;20209;-66
2022/12/02 09:20:59;;;;;;;7.57;6.40;;;7.70;99.90;;;;;;5095290;28;20235;-65
2022/12/02 09:23:27;;;;;;;10.23;6.47;;;7.70;99.90;;;;;;5095089;28;20208;-67
2022/12/02 09:25:54;;;;;;;8.83;6.40;;;7.60;99.90;;;;;;5094117;28;20232;-67
2022/12/02 09:28:22;;;;;;;8.03;5.77;;;7.70;99.90;;;;;;5093186;28;20216;-68
2022/12/02 09:30:49;;;;;;;6.77;5.20;;;7.70;99.90;;;;;;5093325;28;20233;-68
2022/12/02 09:33:16;;;;;;;6.80;5.10;;;7.70;99.90;;;;;;5093470;28;20581;-66
2022/12/02 09:35:43;;;;;;;7.07;4.97;;;7.70;99.90;;;;;;5093347;28;20235;-68
2022/12/02 09:38:10;;;;;;;6.63;4.43;;;7.70;99.90;;;;;;5092886;28;20208;-65
2022/12/02 09:40:37;;;;;;;8.40;5.13;;;7.60;99.90;;;;;;5093265;28;20224;-66
2022/12/02 09:43:05;;;;;;;7.73;5.30;;;7.50;99.90;;;;;;5092798;28;20204;-67
2022/12/02 09:45:33;;;;;;;5.97;4.53;;;7.40;99.90;;;;;;5093112;28;20227;-64
2022/12/02 09:48:00;;;;;;;8.03;5.30;;;7.50;99.90;;;;;;5092876;28;20227;-62
2022/12/02 09:50:27;;;;;;;7.27;5.43;;;7.50;99.90;;;;;;5093248;28;20686;-69
2022/12/02 09:52:59;;;;;;;7.80;5.40;;;7.50;99.90;;;;;;5092474;28;20210;-63
2022/12/02 09:55:25;;;;;;;7.00;4.97;;;7.50;99.90;;;;;;5093049;28;20318;-63
2022/12/02 09:57:52;;;;;;;6.70;5.00;;;7.50;99.90;;;;;;5092034;28;20224;-63
2022/12/02 10:00:22;;;;;;;5.93;4.93;;;7.40;99.90;;;;;;5093391;28;20223;-65
2022/12/02 10:02:51;;;;;;;5.77;4.27;;;7.30;99.90;;;;;;5093287;28;20208;-62
2022/12/02 10:05:21;;;;;;;5.63;4.20;;;7.20;99.90;;;;;;5093233;28;20224;-64
2022/12/02 10:07:50;;;;;;;4.90;3.80;;;7.20;99.90;;;;;;5092992;28;20290;-64
2022/12/02 10:10:20;;;;;;;7.83;4.10;;;7.20;99.90;;;;;;5092955;28;20219;-63
2022/12/02 10:12:47;;;;;;;5.27;3.70;;;7.20;99.90;;;;;;5093555;28;20540;-65
2022/12/02 10:15:17;;;;;;;5.17;4.10;;;7.20;99.90;;;;;;5093440;28;20228;-62
2022/12/02 10:17:46;;;;;;;8.57;3.73;;;7.20;99.90;;;;;;5093539;28;20212;-66
2022/12/02 10:20:18;;;;;;;5.13;3.63;;;7.10;99.90;;;;;;5092642;28;20216;-63
2022/12/02 10:23:05;;;;;;;5.57;4.07;;;7.10;99.90;;;;;;5092141;28;20235;-63
2022/12/02 10:25:32;;;;;;;5.30;4.13;;;7.10;99.90;;;;;;5092831;28;20239;-63
2022/12/02 10:27:59;;;;;;;5.10;4.03;;;7.20;99.90;;;;;;5093115;28;20204;-66
2022/12/02 10:30:27;;;;;;;5.43;3.87;;;7.00;99.90;;;;;;5093401;28;20200;-69
2022/12/02 10:32:59;;;;;;;6.27;3.83;;;6.90;99.90;;;;;;5092476;28;20201;-63
2022/12/02 10:35:28;;;;;;;4.67;3.80;;;6.90;99.90;;;;;;5093029;28;20228;-68
2022/12/02 10:37:55;;;;;;;5.77;4.07;;;6.80;99.90;;;;;;5092844;28;20236;-62
2022/12/02 10:40:23;;;;;;;5.93;4.30;;;6.90;99.90;;;;;;5097219;28;20199;-62
2022/12/02 10:43:07;;;;;;;5.70;4.20;;;6.90;99.90;;;;;;5098006;28;20266;-60
2022/12/02 10:45:34;;;;;;;4.23;3.50;;;6.90;99.90;;;;;;5099329;28;20608;-60
2022/12/02 10:48:12;;;;;;;4.43;3.50;;;6.70;99.90;;;;;;5099626;28;20683;-62
2022/12/02 10:50:40;;;;;;;5.50;3.53;;;6.50;99.90;;;;;;5102927;28;20200;-61
2022/12/02 10:53:13;;;;;;;5.63;3.47;;;6.50;99.90;;;;;;5102059;28;20203;-61
2022/12/02 10:55:41;;;;;;;5.03;3.80;;;6.40;99.90;;;;;;5104396;28;20220;-62
2022/12/02 10:58:12;;;;;;;5.03;3.60;;;6.50;99.90;;;;;;5105870;28;20284;-62
2022/12/02 11:00:39;;;;;;;4.73;3.40;;;6.50;99.90;;;;;;5105320;28;20299;-62
2022/12/02 11:03:06;;;;;;;5.57;3.80;;;6.60;99.90;;;;;;5099592;28;20227;-62
2022/12/02 11:05:36;;;;;;;5.13;3.67;;;6.70;99.90;;;;;;5097450;28;20224;-62
2022/12/02 11:08:07;;;;;;;4.83;4.10;;;6.90;99.90;;;;;;5091383;28;20295;-63
2022/12/02 11:10:35;;;;;;;4.93;3.63;;;7.00;99.90;;;;;;5091101;28;20212;-65
2022/12/02 11:13:25;;;;;;;5.70;4.13;;;7.20;99.90;;;;;;5091060;28;20196;-63
2022/12/02 11:15:53;;;;;;;5.40;3.90;;;7.30;99.90;;;;;;5078024;28;20250;-63
2022/12/02 11:18:56;;;;;;;6.67;4.93;;;7.30;99.90;;;;;;5091077;28;20205;-62
2022/12/02 11:21:37;;;;;;;8.57;6.40;;;7.40;99.90;;;;;;5091275;28;20250;-62
2022/12/02 11:24:37;;;;;;;5.03;3.70;;;7.40;99.90;;;;;;5090945;28;20215;-63
2022/12/02 11:27:11;;;;;;;5.10;3.40;;;7.50;99.90;;;;;;5091509;28;20239;-62
2022/12/02 11:29:41;;;;;;;5.00;3.83;;;7.30;99.90;;;;;;5091149;28;20228;-62
2022/12/02 11:32:20;;;;;;;4.77;3.63;;;7.10;99.90;;;;;;5092382;28;20204;-62
2022/12/02 11:34:49;;;;;;;4.20;3.17;;;7.00;99.90;;;;;;5091789;28;20199;-62
2022/12/02 11:37:40;;;;;;;4.33;3.60;;;6.80;99.90;;;;;;5094777;28;20204;-62
2022/12/02 11:40:54;;;;;;;4.33;3.50;;;6.80;99.90;;;;;;5091902;28;20246;-62
2022/12/02 11:43:50;;;;;;;4.27;3.27;;;6.90;99.90;;;;;;5070564;28;20306;-64
2022/12/02 11:46:19;;;;;;;4.57;3.67;;;6.90;99.90;;;;;;5092615;28;20228;-65
2022/12/02 11:48:47;;;;;;;5.10;3.60;;;6.90;99.90;;;;;;5091094;28;20200;-64
2022/12/02 11:51:33;;;;;;;4.60;4.10;;;7.00;99.90;;;;;;5091282;28;20200;-62
2022/12/02 11:54:00;;;;;;;4.77;3.33;;;7.30;99.90;;;;;;5090775;28;20200;-62
2022/12/02 11:56:32;;;;;;;4.10;3.30;;;7.30;99.90;;;;;;5090970;28;20727;-61
2022/12/02 11:59:00;;;;;;;4.63;3.33;;;7.30;99.90;;;;;;5091066;28;20219;-63
2022/12/02 12:01:27;;;;;;;4.20;3.30;;;7.20;99.90;;;;;;5091386;28;20235;-63
2022/12/02 12:03:54;;;;;;;4.60;3.20;;;7.20;99.90;;;;;;5090821;28;20265;-64
2022/12/02 12:06:22;;;;;;;4.37;3.23;;;7.40;99.90;;;;;;5091113;28;20239;-65
2022/12/02 12:08:51;;;;;;;3.40;2.97;;;7.60;99.90;;;;;;5090204;28;20200;-68
2022/12/02 12:11:24;;;;;;;5.13;3.43;;;7.50;99.90;;;;;;5091336;28;20204;-66
2022/12/02 12:14:00;;;;;;;5.13;4.20;;;7.40;99.90;;;;;;5090915;28;20226;-67
2022/12/02 12:16:31;;;;;;;5.57;3.93;;;7.30;99.90;;;;;;5091159;28;20224;-66
2022/12/02 12:18:58;;;;;;;4.00;3.50;;;7.20;99.90;;;;;;5090192;28;20212;-69
2022/12/02 12:21:44;;;;;;;4.80;3.37;;;7.10;99.90;;;;;;5092578;28;20281;-67
2022/12/02 12:24:33;;;;;;;4.73;3.70;;;7.30;99.90;;;;;;5094510;28;20295;-66
2022/12/02 12:27:28;;;;;;;4.37;3.70;;;7.30;99.90;;;;;;5094819;28;20238;-67
2022/12/02 12:29:56;;;;;;;5.13;4.00;;;7.40;99.90;;;;;;5093387;28;20298;-68
2022/12/02 12:32:23;;;;;;;5.57;3.53;;;7.40;99.90;;;;;;5094141;28;20241;-67
2022/12/02 12:34:50;;;;;;;4.87;3.87;;;7.40;99.90;;;;;;5093912;28;20210;-67
2022/12/02 12:37:16;;;;;;;4.50;4.00;;;7.50;99.90;;;;;;5094629;28;20555;-66
2022/12/02 12:39:44;;;;;;;4.80;3.80;;;7.50;99.90;;;;;;5093731;28;20664;-69
2022/12/02 12:42:11;;;;;;;5.33;3.63;;;7.50;99.90;;;;;;5094482;28;20437;-66
2022/12/02 12:44:38;;;;;;;5.23;3.73;;;7.50;99.90;;;;;;5093981;28;20638;-68
2022/12/02 12:47:06;;;;;;;4.40;3.77;;;7.50;99.90;;;;;;5094666;28;20256;-68
2022/12/02 12:49:34;;;;;;;5.20;3.57;;;7.60;99.90;;;;;;5093892;28;20213;-67
2022/12/02 12:52:01;;;;;;;7.63;6.23;;;7.70;99.90;;;;;;5094311;28;20204;-68
2022/12/02 12:54:28;;;;;;;4.40;3.50;;;7.80;99.90;;;;;;5093541;28;20215;-66
2022/12/02 12:56:55;;;;;;;4.43;3.87;;;7.70;99.90;;;;;;5094104;28;20253;-68